Millville, Delaware
Current Conditions -  °F | °C
As of 10:53 PM on Thursday 18 Dec 2014 (Local Time) from KOXB Reporting Station
Scattered Clouds Scattered Clouds  
Wind Chill: 35°   Ceiling: Unl
Heat Index: 35°   Visibility: 10mi
Dew Point: 25°   Wind: 3mph
Humidity: 67%   Direction: 330°NNW
Pressure: 30.07"   Gusts: NA
Location:  38.55°N, 75.12°W
Report Text: KOXB 190353Z AUTO 33003KT 10SM SCT110 02/M04 A3007 RMK AO2 SLP183 T00171039 TSNO
Loading
Personal Weather Stations






























Interactive Weather Map New forecast layout! Learn more

10-Day Weather Forecast

Advertisements
Track Severe Weather on mobile